Time;durP1;ratioP1;P1;durP2;ratioP2;P2;SDS_P1;SDS_P2;PMS_P1;PMS_P2;Temp;Humidity;BMP_temperature;BMP_pressure;BME280_temperature;BME280_humidity;BME280_pressure;Samples;Min_cycle;Max_cycle;Signal;HPM_P1;HPM_P2
2022/03/23 00:01:11;;;;;;;;;;;15.90;30.00;;;;;;5061955;28;42951;-73
2022/03/23 00:03:37;;;;;;;;;;;15.90;30.00;;;;;;5061586;28;43002;-74
2022/03/23 00:06:03;;;;;;;;;;;15.90;30.00;;;;;;5061034;28;43837;-74
2022/03/23 00:08:28;;;;;;;;;;;15.90;29.60;;;;;;5062248;28;44211;-73
2022/03/23 00:10:54;;;;;;;;;;;15.90;30.00;;;;;;5062923;28;42896;-74
2022/03/23 00:13:19;;;;;;;;;;;15.90;29.70;;;;;;5061753;28;43064;-74
2022/03/23 00:15:45;;;;;;;;;;;16.00;30.00;;;;;;5062276;28;43071;-80
2022/03/23 00:18:11;;;;;;;;;;;15.90;29.60;;;;;;5065448;28;42991;-79
2022/03/23 00:20:37;;;;;;;;;;;15.90;30.00;;;;;;5066113;28;42890;-81
2022/03/23 00:23:02;;;;;;;;;;;16.00;30.10;;;;;;5065906;28;43099;-80
2022/03/23 00:25:28;;;;;;;;;;;15.80;29.70;;;;;;5066304;28;42960;-80
2022/03/23 00:27:53;;;;;;;;;;;15.80;30.20;;;;;;5065723;28;43626;-80
2022/03/23 00:30:19;;;;;;;;;;;15.80;30.10;;;;;;5065318;28;43115;-75
2022/03/23 00:32:44;;;;;;;;;;;15.80;29.80;;;;;;5057275;28;43425;-76
2022/03/23 00:35:10;;;;;;;;;;;15.80;30.00;;;;;;5065249;28;42960;-73
2022/03/23 00:37:36;;;;;;;;;;;15.80;30.20;;;;;;5065336;28;42827;-75
2022/03/23 00:40:02;;;;;;;;;;;15.80;30.00;;;;;;5064933;28;43229;-74
2022/03/23 00:42:28;;;;;;;;;;;15.80;29.80;;;;;;5065011;28;43594;-75
2022/03/23 00:44:53;;;;;;;;;;;15.80;30.00;;;;;;5064532;28;43064;-73
2022/03/23 00:47:19;;;;;;;;;;;15.80;29.90;;;;;;5065059;28;42962;-73
2022/03/23 00:49:45;;;;;;;;;;;15.80;30.10;;;;;;5064820;28;43648;-72
2022/03/23 00:52:11;;;;;;;;;;;15.70;29.70;;;;;;5072083;28;43397;-73
2022/03/23 00:54:37;;;;;;;;;;;15.80;30.20;;;;;;5085440;28;43082;-74
2022/03/23 00:57:03;;;;;;;;;;;15.80;30.10;;;;;;5067743;28;42923;-73
2022/03/23 00:59:29;;;;;;;;;;;15.80;30.00;;;;;;5086085;28;43056;-72
2022/03/23 01:01:58;;;;;;;;;;;15.90;29.90;;;;;;5077260;28;43249;-74
2022/03/23 01:04:24;;;;;;;;;;;15.90;30.10;;;;;;5065559;28;43116;-73
2022/03/23 01:06:52;;;;;;;;;;;15.90;30.10;;;;;;5047023;28;42956;-73
2022/03/23 01:09:22;;;;;;;;;;;15.70;29.60;;;;;;5042634;28;42886;-73
2022/03/23 01:11:49;;;;;;;;;;;15.80;30.10;;;;;;5044442;28;43082;-73
2022/03/23 01:14:14;;;;;;;;;;;15.70;30.10;;;;;;5065078;28;43029;-73
2022/03/23 01:16:40;;;;;;;;;;;15.70;29.80;;;;;;5086054;28;43104;-73
2022/03/23 01:19:06;;;;;;;;;;;15.80;30.40;;;;;;5084622;28;43045;-73
2022/03/23 01:21:32;;;;;;;;;;;15.80;30.10;;;;;;5084097;28;42808;-73
2022/03/23 01:23:57;;;;;;;;;;;15.70;30.10;;;;;;5071710;28;43178;-80
2022/03/23 01:26:23;;;;;;;;;;;15.70;29.80;;;;;;5064837;28;42959;-73
2022/03/23 01:28:48;;;;;;;;;;;15.70;29.80;;;;;;5054905;28;43203;-74
2022/03/23 01:31:14;;;;;;;;;;;15.80;30.50;;;;;;5060677;28;43554;-80
2022/03/23 01:33:39;;;;;;;;;;;15.80;29.70;;;;;;5063704;28;42985;-73
2022/03/23 01:36:05;;;;;;;;;;;15.70;29.70;;;;;;5063757;28;42938;-76
2022/03/23 01:38:30;;;;;;;;;;;15.70;29.80;;;;;;5063325;28;43229;-73
2022/03/23 01:40:56;;;;;;;;;;;15.70;30.10;;;;;;5064505;28;42964;-73
2022/03/23 01:43:21;;;;;;;;;;;15.70;30.10;;;;;;5046106;28;42907;-76
2022/03/23 01:45:47;;;;;;;;;;;15.60;29.90;;;;;;5063430;28;43719;-73
2022/03/23 01:48:12;;;;;;;;;;;15.60;29.80;;;;;;5046153;28;43019;-73
2022/03/23 01:50:38;;;;;;;;;;;15.60;30.10;;;;;;5063396;28;43067;-72
2022/03/23 01:53:04;;;;;;;;;;;15.60;30.30;;;;;;5063233;28;42999;-79
2022/03/23 01:55:29;;;;;;;;;;;15.60;30.20;;;;;;5063204;28;42918;-80
2022/03/23 01:57:55;;;;;;;;;;;15.60;30.30;;;;;;5064338;28;42950;-74
2022/03/23 02:00:21;;;;;;;;;;;15.50;30.20;;;;;;5064336;28;43009;-75
2022/03/23 02:02:47;;;;;;;;;;;15.60;30.20;;;;;;5064164;28;43009;-73
2022/03/23 02:05:12;;;;;;;;;;;15.70;30.00;;;;;;5064326;28;43281;-73
2022/03/23 02:07:39;;;;;;;;;;;15.60;29.80;;;;;;5064253;28;43102;-78
2022/03/23 02:10:05;;;;;;;;;;;16.80;30.90;;;;;;5064978;28;42935;-80
2022/03/23 02:12:30;;;;;;;;;;;15.60;30.10;;;;;;5046363;28;42915;-80
2022/03/23 02:14:58;;;;;;;;;;;15.70;30.00;;;;;;5064598;28;43180;-77
2022/03/23 02:17:24;;;;;;;;;;;15.70;29.90;;;;;;5064198;28;42919;-77
2022/03/23 02:19:49;;;;;;;;;;;15.70;30.00;;;;;;5063771;28;43640;-80
2022/03/23 02:22:15;;;;;;;;;;;15.60;29.70;;;;;;5063898;28;43070;-78
2022/03/23 02:24:40;;;;;;;;;;;15.60;29.80;;;;;;5064272;28;43354;-80
2022/03/23 02:27:07;;;;;;;;;;;15.70;29.80;;;;;;5063362;28;43145;-79
2022/03/23 02:29:34;;;;;;;;;;;15.70;29.70;;;;;;5064043;28;43779;-79
2022/03/23 02:32:01;;;;;;;;;;;15.70;30.00;;;;;;5064399;28;42923;-79
2022/03/23 02:34:26;;;;;;;;;;;15.70;30.00;;;;;;5063675;28;43437;-79
2022/03/23 02:36:52;;;;;;;;;;;15.60;30.00;;;;;;5056311;28;43044;-80
2022/03/23 02:39:18;;;;;;;;;;;15.70;30.10;;;;;;5062625;28;43431;-80
2022/03/23 02:41:44;;;;;;;;;;;15.70;30.00;;;;;;5044316;28;42938;-74
2022/03/23 02:44:16;;;;;;;;;;;15.70;29.60;;;;;;5063439;28;43007;-79
2022/03/23 02:46:42;;;;;;;;;;;15.70;30.00;;;;;;5064081;28;43118;-79
2022/03/23 02:49:07;;;;;;;;;;;15.70;30.00;;;;;;5062361;28;43026;-81
2022/03/23 02:51:33;;;;;;;;;;;15.60;29.50;;;;;;5061984;28;43082;-80
2022/03/23 03:02:36;;;;;;;;;;;15.50;30.00;;;;;;5063188;28;43137;-81
2022/03/23 03:05:09;;;;;;;;;;;15.50;29.90;;;;;;5062873;28;42891;-79
2022/03/23 03:10:20;;;;;;;;;;;15.50;29.90;;;;;;5063329;28;43162;-82
2022/03/23 03:12:46;;;;;;;;;;;15.50;29.90;;;;;;5063752;28;42911;-81
2022/03/23 03:15:12;;;;;;;;;;;15.30;29.60;;;;;;5063305;28;43021;-81
2022/03/23 03:17:38;;;;;;;;;;;15.40;30.00;;;;;;5062983;28;42798;-80
2022/03/23 03:20:04;;;;;;;;;;;15.30;29.70;;;;;;5062018;28;42872;-80
2022/03/23 03:22:34;;;;;;;;;;;15.40;29.60;;;;;;5064204;28;43451;-80
2022/03/23 03:24:59;;;;;;;;;;;15.40;30.00;;;;;;5063845;28;42930;-81
2022/03/23 03:27:25;;;;;;;;;;;15.50;29.70;;;;;;5044699;28;42934;-81
2022/03/23 03:29:51;;;;;;;;;;;15.50;30.00;;;;;;5062840;28;43525;-80
2022/03/23 03:32:16;;;;;;;;;;;15.50;30.00;;;;;;5062842;28;43053;-81
2022/03/23 03:34:42;;;;;;;;;;;15.40;30.00;;;;;;5063490;28;43515;-81
2022/03/23 03:37:07;;;;;;;;;;;15.40;30.00;;;;;;5062949;28;42863;-80
2022/03/23 03:39:33;;;;;;;;;;;15.40;30.00;;;;;;5062975;28;43980;-79
2022/03/23 03:41:58;;;;;;;;;;;15.30;29.50;;;;;;5062723;28;42964;-80
2022/03/23 03:44:24;;;;;;;;;;;15.30;29.90;;;;;;5061915;28;42943;-80
2022/03/23 03:46:49;;;;;;;;;;;15.40;30.00;;;;;;5060373;28;42915;-80
2022/03/23 03:49:15;;;;;;;;;;;15.40;30.00;;;;;;5062493;28;43183;-79
2022/03/23 03:51:42;;;;;;;;;;;14.60;29.40;;;;;;5064196;28;42943;-76
2022/03/23 03:54:07;;;;;;;;;;;15.50;29.80;;;;;;5067193;28;43378;-80
2022/03/23 03:56:33;;;;;;;;;;;15.50;29.60;;;;;;5066191;28;43015;-80
2022/03/23 03:58:59;;;;;;;;;;;15.50;29.90;;;;;;5066169;28;43063;-81
2022/03/23 04:01:24;;;;;;;;;;;15.40;29.50;;;;;;5065660;28;43026;-83
2022/03/23 04:03:50;;;;;;;;;;;15.30;29.70;;;;;;5064887;28;43042;-82
2022/03/23 04:06:15;;;;;;;;;;;15.10;29.60;;;;;;5047596;28;43163;-82
2022/03/23 04:08:41;;;;;;;;;;;15.10;29.90;;;;;;5065901;28;43060;-79
2022/03/23 04:11:06;;;;;;;;;;;15.10;29.80;;;;;;5066867;28;42982;-84
2022/03/23 04:13:32;;;;;;;;;;;15.00;30.20;;;;;;5068383;28;42918;-85
2022/03/23 04:15:58;;;;;;;;;;;15.00;30.50;;;;;;5067504;28;43255;-84
2022/03/23 04:18:26;;;;;;;;;;;15.00;30.30;;;;;;5067455;28;43694;-83
2022/03/23 04:20:52;;;;;;;;;;;15.00;30.70;;;;;;5066530;28;43196;-83
2022/03/23 04:23:18;;;;;;;;;;;15.00;30.40;;;;;;5068083;28;42993;-83
2022/03/23 04:25:43;;;;;;;;;;;14.90;30.50;;;;;;5071346;28;42898;-83
2022/03/23 04:28:09;;;;;;;;;;;14.90;30.70;;;;;;5071990;28;43553;-84
2022/03/23 04:30:34;;;;;;;;;;;14.80;30.00;;;;;;5067222;28;43134;-84
2022/03/23 04:33:00;;;;;;;;;;;14.90;30.60;;;;;;5064703;28;42907;-85
2022/03/23 04:35:26;;;;;;;;;;;14.80;30.00;;;;;;5066245;28;42998;-84
2022/03/23 04:37:52;;;;;;;;;;;14.80;30.10;;;;;;5079669;28;43056;-84
2022/03/23 04:40:18;;;;;;;;;;;14.80;31.40;;;;;;5082863;28;42939;-84
2022/03/23 04:42:44;;;;;;;;;;;14.80;30.70;;;;;;5065682;28;42806;-83
2022/03/23 04:45:10;;;;;;;;;;;14.80;30.70;;;;;;5065643;28;43211;-84
2022/03/23 04:47:36;;;;;;;;;;;14.80;30.90;;;;;;5065846;28;42985;-84
2022/03/23 04:50:03;;;;;;;;;;;14.70;30.20;;;;;;5036665;28;43276;-78
2022/03/23 04:52:30;;;;;;;;;;;14.70;30.70;;;;;;5045051;28;43407;-77
2022/03/23 04:54:56;;;;;;;;;;;14.70;30.90;;;;;;5044104;28;43024;-81
2022/03/23 04:57:25;;;;;;;;;;;14.60;30.70;;;;;;5044160;28;44507;-76
2022/03/23 04:59:51;;;;;;;;;;;14.70;30.70;;;;;;5043133;28;43573;-78
2022/03/23 05:02:17;;;;;;;;;;;14.70;30.90;;;;;;5033851;28;43579;-76
2022/03/23 05:04:43;;;;;;;;;;;14.70;30.70;;;;;;5036368;28;43228;-82
2022/03/23 05:07:08;;;;;;;;;;;14.70;30.80;;;;;;5024954;28;44314;-75
2022/03/23 05:09:34;;;;;;;;;;;14.70;30.70;;;;;;5024629;28;42901;-79
2022/03/23 05:11:59;;;;;;;;;;;14.60;30.20;;;;;;5025084;28;43007;-75
2022/03/23 05:14:25;;;;;;;;;;;14.70;30.90;;;;;;5024948;28;42932;-74
2022/03/23 05:16:50;;;;;;;;;;;14.70;30.80;;;;;;5037966;28;42971;-76
2022/03/23 05:19:16;;;;;;;;;;;14.60;30.40;;;;;;5043465;28;43024;-75
2022/03/23 05:21:42;;;;;;;;;;;14.60;30.40;;;;;;5045028;28;43631;-75
2022/03/23 05:24:08;;;;;;;;;;;14.70;31.10;;;;;;5044320;28;42993;-75
2022/03/23 05:26:33;;;;;;;;;;;14.60;31.00;;;;;;5044267;28;43463;-77
2022/03/23 05:28:59;;;;;;;;;;;14.60;31.30;;;;;;5044923;28;42987;-75
2022/03/23 05:31:24;;;;;;;;;;;14.60;30.70;;;;;;5044647;28;42978;-77
2022/03/23 05:33:50;;;;;;;;;;;14.60;31.10;;;;;;5043604;28;42911;-76
2022/03/23 05:36:16;;;;;;;;;;;14.80;31.10;;;;;;5055000;28;43165;-78
2022/03/23 05:38:42;;;;;;;;;;;14.90;30.20;;;;;;5053337;28;43011;-77
2022/03/23 05:41:07;;;;;;;;;;;14.60;28.50;;;;;;5047408;28;43678;-75
2022/03/23 05:43:33;;;;;;;;;;;14.40;28.30;;;;;;5046273;28;43037;-75
2022/03/23 05:45:59;;;;;;;;;;;14.20;28.20;;;;;;5045349;28;43053;-75
2022/03/23 05:48:24;;;;;;;;;;;14.20;28.20;;;;;;5042539;28;43245;-75
2022/03/23 05:50:50;;;;;;;;;;;14.10;28.10;;;;;;5059879;28;43603;-75
2022/03/23 05:53:15;;;;;;;;;;;14.00;28.60;;;;;;5063720;28;43009;-76
2022/03/23 05:55:41;;;;;;;;;;;14.00;28.50;;;;;;5063572;28;43551;-75
2022/03/23 05:58:06;;;;;;;;;;;13.80;28.20;;;;;;5062778;28;43969;-78
2022/03/23 06:00:32;;;;;;;;;;;13.80;28.20;;;;;;5059580;28;43335;-76
2022/03/23 06:02:58;;;;;;;;;;;13.80;28.70;;;;;;5062816;28;43758;-74
2022/03/23 06:05:23;;;;;;;;;;;13.80;28.80;;;;;;5064196;28;42959;-74
2022/03/23 06:07:49;;;;;;;;;;;14.20;28.70;;;;;;5064611;28;43534;-74
2022/03/23 06:10:14;;;;;;;;;;;14.40;28.60;;;;;;5063408;28;42912;-73
2022/03/23 06:12:40;;;;;;;;;;;14.40;28.50;;;;;;5063336;28;42983;-73
2022/03/23 06:15:08;;;;;;;;;;;14.30;28.50;;;;;;5064385;28;43647;-73
2022/03/23 06:17:34;;;;;;;;;;;14.20;28.10;;;;;;5046793;28;43097;-76
2022/03/23 06:20:00;;;;;;;;;;;14.30;28.50;;;;;;5065051;28;43378;-76
2022/03/23 06:22:25;;;;;;;;;;;14.40;28.30;;;;;;5065804;28;43037;-74
2022/03/23 06:24:51;;;;;;;;;;;14.60;28.80;;;;;;5046888;28;44718;-73
2022/03/23 06:27:16;;;;;;;;;;;14.60;28.90;;;;;;5065333;28;42942;-74
2022/03/23 06:29:42;;;;;;;;;;;14.60;28.90;;;;;;5064505;28;43709;-78
2022/03/23 06:32:08;;;;;;;;;;;14.80;28.80;;;;;;5064257;28;43153;-74
2022/03/23 06:34:33;;;;;;;;;;;14.80;28.80;;;;;;5064803;28;43853;-79
2022/03/23 06:37:01;;;;;;;;;;;14.70;28.70;;;;;;5064791;28;42980;-73
2022/03/23 06:39:28;;;;;;;;;;;14.70;28.70;;;;;;5064547;28;43018;-75
2022/03/23 06:41:54;;;;;;;;;;;14.70;28.90;;;;;;5065716;28;43018;-76
2022/03/23 06:44:20;;;;;;;;;;;14.80;29.00;;;;;;5065568;28;42879;-81
2022/03/23 06:46:45;;;;;;;;;;;14.90;29.10;;;;;;5064894;28;42894;-76
2022/03/23 06:49:12;;;;;;;;;;;15.00;29.00;;;;;;5063341;28;43474;-82
2022/03/23 06:51:37;;;;;;;;;;;15.00;29.10;;;;;;5064309;28;43557;-77
2022/03/23 06:54:03;;;;;;;;;;;15.10;29.10;;;;;;5064072;28;43620;-76
2022/03/23 06:56:29;;;;;;;;;;;15.30;29.00;;;;;;5063553;28;42960;-77
2022/03/23 06:58:55;;;;;;;;;;;15.10;28.80;;;;;;5063995;28;43012;-82
2022/03/23 07:01:21;;;;;;;;;;;15.10;29.10;;;;;;5064392;28;42967;-82
2022/03/23 07:03:48;;;;;;;;;;;15.10;29.10;;;;;;5064016;28;42994;-76
2022/03/23 07:06:16;;;;;;;;;;;15.20;29.20;;;;;;5064634;28;42979;-82
2022/03/23 07:11:29;;;;;;;;;;;15.40;29.10;;;;;;5064745;28;42956;-82
2022/03/23 07:13:55;;;;;;;;;;;15.50;28.50;;;;;;5063589;28;42983;-83
2022/03/23 07:16:20;;;;;;;;;;;15.60;28.40;;;;;;5064439;28;42899;-83
2022/03/23 07:18:46;;;;;;;;;;;15.60;28.30;;;;;;5064531;28;43116;-82
2022/03/23 07:21:12;;;;;;;;;;;15.60;28.30;;;;;;5064933;28;42858;-81
2022/03/23 07:23:37;;;;;;;;;;;15.70;28.30;;;;;;5064210;28;43857;-80
2022/03/23 07:26:03;;;;;;;;;;;15.60;28.00;;;;;;5063297;28;42963;-82
2022/03/23 07:28:29;;;;;;;;;;;15.60;28.30;;;;;;5063168;28;42961;-78
2022/03/23 07:30:55;;;;;;;;;;;15.70;28.40;;;;;;5063965;28;43006;-82
2022/03/23 07:33:21;;;;;;;;;;;15.70;28.40;;;;;;5062911;28;42983;-81
2022/03/23 07:35:47;;;;;;;;;;;15.80;28.50;;;;;;5046074;28;43177;-82
2022/03/23 07:38:12;;;;;;;;;;;15.80;28.60;;;;;;5064474;28;42903;-82
2022/03/23 07:40:38;;;;;;;;;;;15.80;28.30;;;;;;5063985;28;42850;-81
2022/03/23 07:43:04;;;;;;;;;;;15.80;28.80;;;;;;5064457;28;42927;-81
2022/03/23 07:45:30;;;;;;;;;;;15.90;28.60;;;;;;5063753;28;42928;-82
2022/03/23 07:47:56;;;;;;;;;;;15.90;28.50;;;;;;5063840;28;42955;-83
2022/03/23 07:50:21;;;;;;;;;;;15.90;28.70;;;;;;5063923;28;42932;-82
2022/03/23 07:52:48;;;;;;;;;;;15.90;28.60;;;;;;5064217;28;43362;-82
2022/03/23 07:55:13;;;;;;;;;;;16.00;28.70;;;;;;5064127;28;42903;-82
2022/03/23 07:57:39;;;;;;;;;;;15.90;28.40;;;;;;5064034;28;43015;-83
2022/03/23 08:00:05;;;;;;;;;;;15.90;27.50;;;;;;5063499;28;43116;-83
2022/03/23 08:02:30;;;;;;;;;;;15.90;28.00;;;;;;5063895;28;43762;-82
2022/03/23 08:04:56;;;;;;;;;;;15.90;27.70;;;;;;5064123;28;42861;-77
2022/03/23 08:07:22;;;;;;;;;;;16.00;27.60;;;;;;5064044;28;43379;-82
2022/03/23 08:09:47;;;;;;;;;;;16.00;27.50;;;;;;5064338;28;42979;-81
2022/03/23 08:12:16;;;;;;;;;;;16.00;27.30;;;;;;5062995;28;43402;-82
2022/03/23 08:14:43;;;;;;;;;;;16.00;27.50;;;;;;5064131;28;43636;-82
2022/03/23 08:17:08;;;;;;;;;;;16.00;28.30;;;;;;5063872;28;43254;-81
2022/03/23 08:19:34;;;;;;;;;;;16.10;28.10;;;;;;5064065;28;42903;-83
2022/03/23 08:22:00;;;;;;;;;;;16.10;28.00;;;;;;5046029;28;42997;-82
2022/03/23 08:24:25;;;;;;;;;;;16.10;27.80;;;;;;5064133;28;42887;-82
2022/03/23 08:26:51;;;;;;;;;;;16.10;26.70;;;;;;5063706;28;42858;-79
2022/03/23 08:29:16;;;;;;;;;;;16.10;27.80;;;;;;5064033;28;43138;-82
2022/03/23 08:31:42;;;;;;;;;;;16.20;28.00;;;;;;5062957;28;43888;-82
2022/03/23 08:34:08;;;;;;;;;;;16.20;27.80;;;;;;5064556;28;42935;-83
2022/03/23 08:36:33;;;;;;;;;;;16.20;27.70;;;;;;5068677;28;43484;-82
2022/03/23 08:38:59;;;;;;;;;;;16.20;27.10;;;;;;5085636;28;42912;-81
2022/03/23 08:41:24;;;;;;;;;;;16.20;27.20;;;;;;5075266;28;42848;-84
2022/03/23 08:43:50;;;;;;;;;;;16.30;27.60;;;;;;5067957;28;42947;-82
2022/03/23 08:46:15;;;;;;;;;;;16.30;27.50;;;;;;5068318;28;42669;-83
2022/03/23 08:48:41;;;;;;;;;;;16.30;27.50;;;;;;5049555;28;43045;-83
2022/03/23 08:51:07;;;;;;;;;;;16.30;27.60;;;;;;5067830;28;43679;-82
2022/03/23 08:53:32;;;;;;;;;;;16.30;27.30;;;;;;5067301;28;43131;-83
2022/03/23 08:55:59;;;;;;;;;;;16.30;27.30;;;;;;5049336;28;43343;-83
2022/03/23 08:58:25;;;;;;;;;;;16.30;26.30;;;;;;5066480;28;43129;-83
2022/03/23 09:00:50;;;;;;;;;;;16.30;27.20;;;;;;5066826;28;43415;-83
2022/03/23 09:03:16;;;;;;;;;;;16.30;27.40;;;;;;5069473;28;42833;-84
2022/03/23 09:05:41;;;;;;;;;;;16.30;27.40;;;;;;5066387;28;43286;-76
2022/03/23 18:42:10;;;;;;;;;;;17.80;29.80;;;;;;5088323;27;43064;-74
2022/03/23 18:44:36;;;;;;;;;;;17.10;29.60;;;;;;5085215;28;44500;-78
2022/03/23 18:47:01;;;;;;;;;;;17.00;29.70;;;;;;5086022;28;43044;-73
2022/03/23 18:49:27;;;;;;;;;;;16.90;30.00;;;;;;5084018;28;43573;-74
2022/03/23 18:51:52;;;;;;;;;;;16.80;29.70;;;;;;5086014;28;42927;-73
2022/03/23 18:54:18;;;;;;;;;;;16.90;30.00;;;;;;5085307;28;43631;-74
2022/03/23 18:56:45;;;;;;;;;;;16.80;29.00;;;;;;5084749;27;58572;-74
2022/03/23 18:59:11;;;;;;;;;;;16.90;30.10;;;;;;5084938;28;42999;-72
2022/03/23 19:01:38;;;;;;;;;;;16.80;29.70;;;;;;5085746;28;42921;-74
2022/03/23 19:04:03;;;;;;;;;;;17.00;29.90;;;;;;5085730;28;43694;-72
2022/03/23 19:06:29;;;;;;;;;;;17.00;29.90;;;;;;5085316;28;42945;-73
2022/03/23 19:08:54;;;;;;;;;;;16.70;30.30;;;;;;5085558;28;43703;-74
2022/03/23 19:11:20;;;;;;;;;;;16.80;29.90;;;;;;5085147;28;43019;-74
2022/03/23 19:13:45;;;;;;;;;;;16.60;29.90;;;;;;5084724;28;42872;-75
2022/03/23 19:16:11;;;;;;;;;;;16.60;29.80;;;;;;5084995;28;42979;-78
2022/03/23 19:18:37;;;;;;;;;;;16.70;30.30;;;;;;5084866;28;43154;-74
2022/03/23 19:21:03;;;;;;;;;;;16.80;29.90;;;;;;5085265;28;42887;-73
2022/03/23 19:23:30;;;;;;;;;;;16.60;29.80;;;;;;5084295;28;43583;-76
2022/03/23 19:25:57;;;;;;;;;;;16.60;29.80;;;;;;5085268;28;42917;-73
2022/03/23 19:28:23;;;;;;;;;;;16.70;29.80;;;;;;5085722;28;42947;-75
2022/03/23 19:30:49;;;;;;;;;;;16.80;29.80;;;;;;5085228;28;42865;-73
2022/03/23 19:33:14;;;;;;;;;;;16.70;30.10;;;;;;5090341;28;43798;-75
2022/03/23 19:35:42;;;;;;;;;;;16.90;29.70;;;;;;5091082;28;42798;-75
2022/03/23 19:38:09;;;;;;;;;;;16.80;29.70;;;;;;5085101;28;43383;-74
2022/03/23 19:40:34;;;;;;;;;;;16.80;29.60;;;;;;5084637;28;42953;-74
2022/03/23 19:43:00;;;;;;;;;;;16.80;29.70;;;;;;5085177;28;43015;-77
2022/03/23 19:45:26;;;;;;;;;;;16.80;29.80;;;;;;5085162;28;42929;-73
2022/03/23 19:47:51;;;;;;;;;;;16.80;29.80;;;;;;5085681;28;43249;-73
2022/03/23 19:50:17;;;;;;;;;;;16.80;30.10;;;;;;5085036;28;42953;-74
2022/03/23 19:52:43;;;;;;;;;;;16.70;29.70;;;;;;5084530;28;43500;-73
2022/03/23 19:55:08;;;;;;;;;;;16.90;29.80;;;;;;5084528;28;43016;-73
2022/03/23 19:57:34;;;;;;;;;;;16.90;29.80;;;;;;5085214;28;43276;-73
2022/03/23 20:00:01;;;;;;;;;;;17.00;29.80;;;;;;5085454;28;42839;-73
2022/03/23 20:02:26;;;;;;;;;;;16.80;30.20;;;;;;5085074;28;43350;-72
2022/03/23 20:04:52;;;;;;;;;;;16.70;30.30;;;;;;5085233;28;42971;-73
2022/03/23 20:07:18;;;;;;;;;;;16.80;30.00;;;;;;5084553;28;42940;-73
2022/03/23 20:09:44;;;;;;;;;;;16.60;29.90;;;;;;5079281;28;43011;-72
2022/03/23 20:12:11;;;;;;;;;;;16.70;29.90;;;;;;5062082;28;43845;-75
2022/03/23 20:14:37;;;;;;;;;;;16.70;30.40;;;;;;5063420;28;42942;-73
2022/03/23 20:17:03;;;;;;;;;;;16.80;30.40;;;;;;5083328;28;43367;-73
2022/03/23 20:19:28;;;;;;;;;;;16.80;30.50;;;;;;5081952;28;43050;-75
2022/03/23 20:21:54;;;;;;;;;;;16.70;30.30;;;;;;5079606;28;43823;-75
2022/03/23 20:24:20;;;;;;;;;;;16.80;30.00;;;;;;5082120;28;43103;-76
2022/03/23 20:26:45;;;;;;;;;;;16.90;30.20;;;;;;5081751;28;42983;-77
2022/03/23 20:29:11;;;;;;;;;;;16.70;30.00;;;;;;5082827;27;43433;-76
2022/03/23 20:31:38;;;;;;;;;;;16.80;30.60;;;;;;5082594;27;42967;-72
2022/03/23 20:34:05;;;;;;;;;;;16.90;30.60;;;;;;5084286;27;42983;-73
2022/03/23 20:36:32;;;;;;;;;;;16.80;30.50;;;;;;5086116;27;43083;-74
2022/03/23 20:38:58;;;;;;;;;;;17.00;30.80;;;;;;5085350;27;42971;-75
2022/03/23 20:41:23;;;;;;;;;;;17.00;30.00;;;;;;5084862;28;42958;-73
2022/03/23 20:43:50;;;;;;;;;;;17.00;30.00;;;;;;5086168;28;42943;-75
2022/03/23 20:46:15;;;;;;;;;;;17.00;30.00;;;;;;5083932;28;43144;-75
2022/03/23 20:48:44;;;;;;;;;;;16.90;30.50;;;;;;5073125;28;42909;-74
2022/03/23 20:51:10;;;;;;;;;;;16.70;30.00;;;;;;5081134;28;43736;-74
2022/03/23 20:53:37;;;;;;;;;;;16.60;30.10;;;;;;5071607;28;43266;-74
2022/03/23 20:56:03;;;;;;;;;;;16.70;30.10;;;;;;5066821;28;42994;-74
2022/03/23 20:58:28;;;;;;;;;;;16.50;30.20;;;;;;5087045;28;42916;-74
2022/03/23 21:00:57;;;;;;;;;;;16.60;30.30;;;;;;5079864;27;42992;-73
2022/03/23 21:03:24;;;;;;;;;;;16.50;30.00;;;;;;5084805;28;43020;-76
2022/03/23 21:05:52;;;;;;;;;;;16.70;30.80;;;;;;5076180;28;44202;-77
2022/03/23 21:08:19;;;;;;;;;;;16.60;31.30;;;;;;5084407;27;43040;-77
2022/03/23 21:10:46;;;;;;;;;;;16.60;32.40;;;;;;5085147;28;43379;-75
2022/03/23 21:13:12;;;;;;;;;;;16.60;33.20;;;;;;5085313;28;43368;-76
2022/03/23 21:15:42;;;;;;;;;;;16.30;32.50;;;;;;5084770;28;43327;-74
2022/03/23 21:18:08;;;;;;;;;;;16.50;31.90;;;;;;5085677;28;42980;-78
2022/03/23 21:20:34;;;;;;;;;;;16.50;32.80;;;;;;5084444;27;43027;-76
2022/03/23 21:23:00;;;;;;;;;;;16.40;32.60;;;;;;5085702;27;43106;-78
2022/03/23 21:25:26;;;;;;;;;;;16.30;32.60;;;;;;5085440;27;43500;-77
2022/03/23 21:27:52;;;;;;;;;;;16.20;33.00;;;;;;5085820;28;43020;-78
2022/03/23 21:30:18;;;;;;;;;;;16.30;32.90;;;;;;5083772;28;43414;-77
2022/03/23 21:32:44;;;;;;;;;;;16.20;32.90;;;;;;5066247;28;42972;-77
2022/03/23 21:35:10;;;;;;;;;;;16.20;32.60;;;;;;5071707;28;44651;-78
2022/03/23 21:37:36;;;;;;;;;;;16.40;32.50;;;;;;5085123;28;43031;-76
2022/03/23 21:40:03;;;;;;;;;;;16.20;32.70;;;;;;5085351;27;43586;-77
2022/03/23 21:42:29;;;;;;;;;;;16.40;32.30;;;;;;5084934;28;42850;-78
2022/03/23 21:44:55;;;;;;;;;;;16.20;32.00;;;;;;5084849;27;43945;-76
2022/03/23 21:47:21;;;;;;;;;;;16.50;32.30;;;;;;5085364;28;42933;-77
2022/03/23 21:49:46;;;;;;;;;;;16.40;32.50;;;;;;5084475;27;42815;-77
2022/03/23 21:52:12;;;;;;;;;;;16.40;32.40;;;;;;5083313;28;43057;-78
2022/03/23 21:54:38;;;;;;;;;;;16.60;31.70;;;;;;5072348;28;42908;-76
2022/03/23 21:57:05;;;;;;;;;;;16.40;31.80;;;;;;5066398;28;42891;-77
2022/03/23 21:59:30;;;;;;;;;;;16.40;32.10;;;;;;5084926;27;43312;-78
2022/03/23 22:01:56;;;;;;;;;;;16.50;32.20;;;;;;5085806;27;43246;-78
2022/03/23 22:04:21;;;;;;;;;;;16.20;32.30;;;;;;5083753;27;43566;-77
2022/03/23 22:06:47;;;;;;;;;;;16.30;32.40;;;;;;5085553;27;43126;-77
2022/03/23 22:09:12;;;;;;;;;;;16.40;32.00;;;;;;5084682;27;43875;-78
2022/03/23 22:11:38;;;;;;;;;;;16.30;32.10;;;;;;5085457;27;43235;-78
2022/03/23 22:14:03;;;;;;;;;;;16.40;31.80;;;;;;5085791;27;42990;-77
2022/03/23 22:16:29;;;;;;;;;;;16.30;31.80;;;;;;5085005;28;42986;-77
2022/03/23 22:18:55;;;;;;;;;;;16.40;31.90;;;;;;5083732;28;43070;-77
2022/03/23 22:21:21;;;;;;;;;;;16.50;32.30;;;;;;5085525;27;42942;-77
2022/03/23 22:23:46;;;;;;;;;;;16.50;32.40;;;;;;5083894;28;43365;-78
2022/03/23 22:26:12;;;;;;;;;;;16.40;32.40;;;;;;5085061;27;43012;-75
2022/03/23 22:28:38;;;;;;;;;;;16.50;32.10;;;;;;5084042;28;44436;-75
2022/03/23 22:31:07;;;;;;;;;;;16.50;32.50;;;;;;5083388;28;43106;-76
2022/03/23 22:33:37;;;;;;;;;;;16.40;31.40;;;;;;5084958;27;42953;-75
2022/03/23 22:36:04;;;;;;;;;;;16.40;31.90;;;;;;5084536;28;42930;-76
2022/03/23 22:38:30;;;;;;;;;;;16.30;32.30;;;;;;5084207;27;43020;-78
2022/03/23 22:40:56;;;;;;;;;;;16.40;32.70;;;;;;5084656;27;43038;-74
2022/03/23 22:43:22;;;;;;;;;;;16.40;32.40;;;;;;5084835;27;43041;-73
2022/03/23 22:45:58;;;;;;;;;;;16.30;32.20;;;;;;5084071;27;43011;-74
2022/03/23 22:48:24;;;;;;;;;;;16.30;32.00;;;;;;5084047;28;43721;-75
2022/03/23 22:50:50;;;;;;;;;;;16.40;32.20;;;;;;5082547;28;43063;-74
2022/03/23 22:53:16;;;;;;;;;;;16.20;32.30;;;;;;5084014;27;42982;-73
2022/03/23 22:55:49;;;;;;;;;;;16.20;32.90;;;;;;5083697;27;42997;-76
2022/03/23 22:58:15;;;;;;;;;;;15.70;32.10;;;;;;5082535;28;43086;-74
2022/03/23 23:00:41;;;;;;;;;;;16.30;32.70;;;;;;5082787;27;43044;-75
2022/03/23 23:03:08;;;;;;;;;;;16.30;32.20;;;;;;5083411;28;43016;-72
2022/03/23 23:05:33;;;;;;;;;;;16.30;33.10;;;;;;5081971;28;43079;-73
2022/03/23 23:07:59;;;;;;;;;;;16.30;32.60;;;;;;5083529;28;43063;-72
2022/03/23 23:10:24;;;;;;;;;;;16.40;32.90;;;;;;5084096;27;42949;-74
2022/03/23 23:12:52;;;;;;;;;;;16.30;33.40;;;;;;5085240;28;43453;-74
2022/03/23 23:15:19;;;;;;;;;;;16.30;33.30;;;;;;5076644;28;42916;-74
2022/03/23 23:17:45;;;;;;;;;;;16.50;33.80;;;;;;5084200;27;43330;-72
2022/03/23 23:20:13;;;;;;;;;;;16.40;33.40;;;;;;5082964;28;43146;-73
2022/03/23 23:22:39;;;;;;;;;;;16.10;33.20;;;;;;5085691;27;44451;-74
2022/03/23 23:25:05;;;;;;;;;;;16.40;33.50;;;;;;5085191;28;42942;-72
2022/03/23 23:27:32;;;;;;;;;;;16.30;33.50;;;;;;5085033;28;43591;-71
2022/03/23 23:29:58;;;;;;;;;;;16.30;33.40;;;;;;5085467;27;42964;-74
2022/03/23 23:32:24;;;;;;;;;;;15.60;33.00;;;;;;5084268;28;42826;-74
2022/03/23 23:34:50;;;;;;;;;;;16.30;33.50;;;;;;5084593;28;42867;-72
2022/03/23 23:37:16;;;;;;;;;;;16.30;33.50;;;;;;5083908;27;42935;-73
2022/03/23 23:39:41;;;;;;;;;;;16.10;33.50;;;;;;5084834;28;43015;-72
2022/03/23 23:42:09;;;;;;;;;;;16.10;33.30;;;;;;5085015;28;42931;-73
2022/03/23 23:44:35;;;;;;;;;;;16.20;33.50;;;;;;5085652;28;42897;-72
2022/03/23 23:47:01;;;;;;;;;;;16.10;34.10;;;;;;5084853;28;43434;-72
2022/03/23 23:49:26;;;;;;;;;;;16.20;34.20;;;;;;5084900;28;43521;-72
2022/03/23 23:51:52;;;;;;;;;;;16.10;33.50;;;;;;5084422;28;42967;-72
2022/03/23 23:54:17;;;;;;;;;;;16.30;33.60;;;;;;5083823;27;42916;-71
2022/03/23 23:56:43;;;;;;;;;;;16.20;33.60;;;;;;5083962;28;43802;-72